Bowen, Queensland

7:47 AM AEST on February 14, 2016 (GMT +1000)
Hamilton Island | | Change Station
CLOSE
Current Station
Airport
Location: Hamilton Island,
Elevation: 16 ft
Nearby Weather Stations

Elev 16 ft 20.36 °S, 148.95 °E | Updated 17 minutes ago

Clear
Clear
79 °F
Feels Like 79 °F
N
8
Wind Variable Wind from SW

Today
High -- | Low -- °F
--% Chance of Precip.
Yesterday
High -- | Low -- °F
Precip. -- in
Pressure 29.77 in
Visibility 6.2 miles
Clouds
Dew Point 72 °F
Humidity 78%
Rainfall 0.00 in
Snow Depth Not available.
5:57 AM 6:44 PM
Waxing Crescent, 34% visible
METAR YBHM 132130Z AUTO 22007KT 9999 // NCD 26/22 Q1008
Pressure 29.77 in
Visibility 6.2 miles
Clouds
Dew Point 72 °F
Humidity 78%
Rainfall 0.00 in
Snow Depth Not available.
5:57 AM 6:44 PM
Waxing Crescent, 34% visible
METAR YBHM 132130Z AUTO 22007KT 9999 // NCD 26/22 Q1008

10-Day Weather Forecast

Almanac

Astronomy

Feb. 14, 2016 Rise Set
Actual Time
Civil Twilight
Nautical Twilight
Astronomical Twilight
Moon
Length of Visible Light
Length of Day
Tomorrow will be .
, % of the Moon is Illuminated

Today's Extremes

Country Highs Country Lows

Community

WunderPhotos

Upload Photos

1,892,682 photos uploaded!

WunderBlog® & News

Nearby

Air Quality

  Air Quality AQ Index Pollutant
Not available.

Snow Depth

Station Depth Elevation

Earthquake Activity

City Distance Mag. Time & Date
Minimum magnitude displayed is 2.5.

Coastal Water Temperatures

Place Temperature

Stations

Nearby Weather Stations

Station Location Temp. Windchill Dew Point Humidity Wind Precip. Elev Updated Type